UAL201 PHNL-PGUM
Flight info
| Callsign | UAL201 |
|---|---|
| Flight time | 4h 26m |
| Altitude | 36000 |
| Route | KEOLA3 NONNI BRIUN A450 RESEE/N0479F380 A450 DEWSS |
| Aircraft | B77W/H-SDE1E2E3FGHIJ2J3J4J5M1RWXY/LB1D1 |
Departure
| Time | 2026-04-26 15:44 |
|---|---|
| Airport | Daniel K. Inouye International Airport (PHNL) |
Arrival
| Time | 2026-04-26 20:11 |
|---|---|
| Airport | Antonio B. Won Pat International Airport (PGUM) |
| Time | Latitude | Longitude | Altitude | Speed | Heading |
|---|---|---|---|---|---|
| 2026-04-26 15:10 | 21.32934 | -157.91748 | 29 ft | 0 kts | 74° |
| 2026-04-26 15:32 | 21.32930 | -157.91762 | 29 ft | 4 kts | 70° |
| 2026-04-26 15:32 | 21.32919 | -157.91789 | 28 ft | 4 kts | 60° |
| 2026-04-26 15:33 | 21.32904 | -157.91813 | 27 ft | 4 kts | 47° |
| 2026-04-26 15:33 | 21.32884 | -157.91831 | 27 ft | 4 kts | 24° |
| 2026-04-26 15:33 | 21.32864 | -157.91837 | 27 ft | 4 kts | 11° |
| 2026-04-26 15:33 | 21.32838 | -157.91844 | 26 ft | 4 kts | 22° |
| 2026-04-26 15:34 | 21.32814 | -157.91857 | 26 ft | 4 kts | 35° |
| 2026-04-26 15:34 | 21.32794 | -157.91876 | 26 ft | 4 kts | 50° |
| 2026-04-26 15:34 | 21.32779 | -157.91900 | 26 ft | 4 kts | 69° |
| 2026-04-26 15:34 | 21.32774 | -157.91924 | 29 ft | 1 kts | 90° |
| 2026-04-26 15:37 | 21.32762 | -157.91905 | 26 ft | 8 kts | 138° |
| 2026-04-26 15:37 | 21.32707 | -157.91887 | 29 ft | 8 kts | 164° |
| 2026-04-26 15:37 | 21.32648 | -157.91854 | 29 ft | 10 kts | 147° |
| 2026-04-26 15:37 | 21.32589 | -157.91813 | 29 ft | 10 kts | 147° |
| 2026-04-26 15:38 | 21.32527 | -157.91768 | 29 ft | 15 kts | 145° |
| 2026-04-26 15:38 | 21.32429 | -157.91687 | 29 ft | 18 kts | 141° |
| 2026-04-26 15:38 | 21.32326 | -157.91604 | 29 ft | 18 kts | 143° |
| 2026-04-26 15:38 | 21.32223 | -157.91524 | 29 ft | 18 kts | 143° |
| 2026-04-26 15:39 | 21.32149 | -157.91471 | 29 ft | 10 kts | 164° |
| 2026-04-26 15:39 | 21.32090 | -157.91513 | 29 ft | 14 kts | 229° |
| 2026-04-26 15:39 | 21.32017 | -157.91610 | 29 ft | 17 kts | 226° |
| 2026-04-26 15:39 | 21.31953 | -157.91662 | 29 ft | 17 kts | 215° |
| 2026-04-26 15:40 | 21.31842 | -157.91783 | 29 ft | 17 kts | 232° |
| 2026-04-26 15:40 | 21.31769 | -157.91885 | 29 ft | 17 kts | 233° |
| 2026-04-26 15:40 | 21.31697 | -157.91988 | 29 ft | 17 kts | 233° |
| 2026-04-26 15:40 | 21.31625 | -157.92091 | 29 ft | 17 kts | 233° |
| 2026-04-26 15:41 | 21.31539 | -157.92213 | 29 ft | 25 kts | 233° |
| 2026-04-26 15:41 | 21.31434 | -157.92361 | 29 ft | 25 kts | 232° |
| 2026-04-26 15:41 | 21.31368 | -157.92454 | 29 ft | 11 kts | 233° |
| 2026-04-26 15:41 | 21.31322 | -157.92520 | 29 ft | 11 kts | 233° |
| 2026-04-26 15:42 | 21.31288 | -157.92591 | 29 ft | 11 kts | 272° |
| 2026-04-26 15:42 | 21.31339 | -157.92651 | 29 ft | 11 kts | 321° |
| 2026-04-26 15:42 | 21.31388 | -157.92688 | 29 ft | 7 kts | 346° |
| 2026-04-26 15:42 | 21.31427 | -157.92661 | 29 ft | 2 kts | 49° |
| 2026-04-26 15:43 | 21.31464 | -157.92610 | 29 ft | 25 kts | 52° |
| 2026-04-26 15:44 | 21.31720 | -157.92246 | 29 ft | 99 kts | 53° |
| 2026-04-26 15:44 | 21.32982 | -157.90406 | 462 ft | 178 kts | 53° |
| 2026-04-26 15:44 | 21.33883 | -157.89477 | 1078 ft | 183 kts | 28° |
| 2026-04-26 15:45 | 21.36316 | -157.89988 | 2252 ft | 204 kts | 319° |
| 2026-04-26 15:45 | 21.37169 | -157.91285 | 2659 ft | 222 kts | 297° |
| 2026-04-26 15:46 | 21.37170 | -157.94832 | 3317 ft | 256 kts | 257° |
| 2026-04-26 15:46 | 21.36803 | -157.96703 | 4010 ft | 256 kts | 258° |
| 2026-04-26 15:46 | 21.36483 | -157.98611 | 4609 ft | 265 kts | 259° |
| 2026-04-26 15:46 | 21.36284 | -157.99930 | 4897 ft | 275 kts | 260° |
| 2026-04-26 15:47 | 21.35900 | -158.02685 | 5679 ft | 286 kts | 261° |
| 2026-04-26 15:47 | 21.35341 | -158.06992 | 7219 ft | 293 kts | 261° |
| 2026-04-26 15:47 | 21.35062 | -158.09144 | 8097 ft | 290 kts | 261° |
| 2026-04-26 15:48 | 21.34780 | -158.11311 | 8832 ft | 294 kts | 262° |
| 2026-04-26 15:48 | 21.34496 | -158.13491 | 9618 ft | 296 kts | 262° |
| 2026-04-26 15:48 | 21.34208 | -158.15696 | 10323 ft | 300 kts | 262° |
| 2026-04-26 15:48 | 21.33910 | -158.17984 | 10628 ft | 321 kts | 262° |
| 2026-04-26 15:49 | 21.33594 | -158.20402 | 10813 ft | 345 kts | 262° |
| 2026-04-26 15:49 | 21.33248 | -158.23044 | 11007 ft | 368 kts | 262° |
| 2026-04-26 15:49 | 21.32884 | -158.25819 | 11521 ft | 380 kts | 263° |
| 2026-04-26 15:49 | 21.32509 | -158.28665 | 12232 ft | 388 kts | 263° |
| 2026-04-26 15:50 | 21.32130 | -158.31544 | 13107 ft | 391 kts | 263° |
| 2026-04-26 15:50 | 21.31745 | -158.34458 | 13933 ft | 396 kts | 263° |
| 2026-04-26 15:50 | 21.31359 | -158.37377 | 14609 ft | 402 kts | 263° |
| 2026-04-26 15:50 | 21.30964 | -158.40368 | 15389 ft | 405 kts | 263° |
| 2026-04-26 15:51 | 21.30566 | -158.43374 | 16136 ft | 410 kts | 263° |
| 2026-04-26 15:51 | 21.30161 | -158.46425 | 16837 ft | 416 kts | 264° |
| 2026-04-26 15:51 | 21.29793 | -158.49538 | 17490 ft | 422 kts | 266° |
| 2026-04-26 15:51 | 21.29678 | -158.52654 | 18308 ft | 423 kts | 270° |
| 2026-04-26 15:52 | 21.29628 | -158.55813 | 18974 ft | 426 kts | 271° |
| 2026-04-26 15:52 | 21.29580 | -158.59020 | 19588 ft | 431 kts | 270° |
| 2026-04-26 15:52 | 21.29528 | -158.62257 | 20225 ft | 435 kts | 270° |
| 2026-04-26 15:52 | 21.29491 | -158.64411 | 20691 ft | 437 kts | 270° |
| 2026-04-26 15:53 | 21.29407 | -158.68803 | 21619 ft | 441 kts | 270° |
| 2026-04-26 15:53 | 21.29340 | -158.72116 | 22219 ft | 446 kts | 270° |
| 2026-04-26 15:53 | 21.29293 | -158.74340 | 22597 ft | 450 kts | 270° |
| 2026-04-26 15:53 | 21.29198 | -158.78803 | 23437 ft | 455 kts | 270° |
| 2026-04-26 15:54 | 21.29123 | -158.82217 | 24011 ft | 458 kts | 270° |
| 2026-04-26 15:54 | 21.29073 | -158.84492 | 24354 ft | 460 kts | 270° |
| 2026-04-26 15:54 | 21.28997 | -158.87930 | 24911 ft | 462 kts | 270° |
| 2026-04-26 15:54 | 21.28919 | -158.91399 | 25489 ft | 464 kts | 270° |
| 2026-04-26 15:55 | 21.28841 | -158.94862 | 26057 ft | 466 kts | 270° |
| 2026-04-26 15:55 | 21.28762 | -158.98347 | 26578 ft | 469 kts | 270° |
| 2026-04-26 15:55 | 21.28682 | -159.01858 | 27096 ft | 472 kts | 270° |
| 2026-04-26 15:55 | 21.28601 | -159.05392 | 27594 ft | 475 kts | 270° |
| 2026-04-26 15:56 | 21.28518 | -159.08944 | 28090 ft | 478 kts | 270° |
| 2026-04-26 15:56 | 21.28435 | -159.12475 | 28568 ft | 480 kts | 270° |
| 2026-04-26 15:56 | 21.28350 | -159.16069 | 29037 ft | 483 kts | 270° |
| 2026-04-26 15:56 | 21.28264 | -159.19687 | 29479 ft | 486 kts | 270° |
| 2026-04-26 15:57 | 21.28176 | -159.23313 | 29918 ft | 488 kts | 270° |
| 2026-04-26 15:57 | 21.28087 | -159.26963 | 30359 ft | 488 kts | 270° |
| 2026-04-26 15:57 | 21.27998 | -159.30598 | 30874 ft | 485 kts | 270° |
| 2026-04-26 15:57 | 21.27938 | -159.32992 | 31275 ft | 483 kts | 270° |
| 2026-04-26 15:58 | 21.27817 | -159.37784 | 32023 ft | 478 kts | 270° |
| 2026-04-26 15:58 | 21.27729 | -159.41299 | 32509 ft | 477 kts | 270° |
| 2026-04-26 15:58 | 21.27639 | -159.44855 | 32978 ft | 475 kts | 270° |
| 2026-04-26 15:58 | 21.27548 | -159.48394 | 33448 ft | 473 kts | 270° |
| 2026-04-26 15:59 | 21.27458 | -159.51916 | 33929 ft | 471 kts | 270° |
| 2026-04-26 15:59 | 21.27367 | -159.55427 | 34346 ft | 469 kts | 270° |
| 2026-04-26 15:59 | 21.27275 | -159.58912 | 34811 ft | 465 kts | 270° |
| 2026-04-26 15:59 | 21.27184 | -159.62367 | 35305 ft | 460 kts | 270° |
| 2026-04-26 16:00 | 21.27093 | -159.65772 | 35804 ft | 455 kts | 270° |
| 2026-04-26 16:00 | 21.27004 | -159.69121 | 36082 ft | 455 kts | 270° |
| 2026-04-26 16:00 | 21.26913 | -159.72522 | 36034 ft | 459 kts | 270° |
| 2026-04-26 16:01 | 21.26726 | -159.79342 | 36040 ft | 454 kts | 270° |
| 2026-04-26 16:01 | 21.26537 | -159.86101 | 36052 ft | 452 kts | 270° |
| 2026-04-26 16:02 | 21.26348 | -159.92833 | 36050 ft | 451 kts | 270° |
| 2026-04-26 16:02 | 21.26156 | -159.99561 | 36050 ft | 452 kts | 270° |
| 2026-04-26 16:03 | 21.25963 | -160.06261 | 36051 ft | 453 kts | 270° |
| 2026-04-26 16:03 | 21.25764 | -160.13034 | 36050 ft | 454 kts | 270° |
| 2026-04-26 16:04 | 21.25564 | -160.19775 | 36050 ft | 454 kts | 270° |
| 2026-04-26 16:04 | 21.25360 | -160.26555 | 36050 ft | 455 kts | 269° |
| 2026-04-26 16:05 | 21.25152 | -160.33336 | 36051 ft | 455 kts | 269° |
| 2026-04-26 16:05 | 21.24942 | -160.40132 | 36052 ft | 455 kts | 269° |
| 2026-04-26 16:06 | 21.24731 | -160.46871 | 36049 ft | 454 kts | 269° |
| 2026-04-26 16:06 | 21.24516 | -160.53635 | 36047 ft | 454 kts | 269° |
| 2026-04-26 16:07 | 21.24299 | -160.60397 | 36047 ft | 453 kts | 269° |
| 2026-04-26 16:07 | 21.24079 | -160.67159 | 36049 ft | 453 kts | 269° |
| 2026-04-26 16:08 | 21.23857 | -160.73915 | 36049 ft | 453 kts | 269° |
| 2026-04-26 16:08 | 21.23633 | -160.80628 | 36052 ft | 453 kts | 269° |
| 2026-04-26 16:09 | 21.23406 | -160.87392 | 36055 ft | 453 kts | 269° |
| 2026-04-26 16:09 | 21.23175 | -160.94144 | 36053 ft | 453 kts | 269° |
| 2026-04-26 16:10 | 21.22943 | -161.00904 | 36053 ft | 453 kts | 269° |
| 2026-04-26 16:10 | 21.22723 | -161.07622 | 36053 ft | 454 kts | 270° |
| 2026-04-26 16:11 | 21.22593 | -161.14384 | 36050 ft | 454 kts | 270° |
| 2026-04-26 16:11 | 21.22482 | -161.21153 | 36049 ft | 454 kts | 270° |
| 2026-04-26 16:12 | 21.22359 | -161.27932 | 36051 ft | 454 kts | 270° |
| 2026-04-26 16:12 | 21.22158 | -161.38072 | 36052 ft | 454 kts | 270° |
| 2026-04-26 16:13 | 21.22017 | -161.44864 | 36052 ft | 454 kts | 270° |
| 2026-04-26 16:13 | 21.21875 | -161.51600 | 36052 ft | 454 kts | 270° |
| 2026-04-26 16:14 | 21.21730 | -161.58374 | 36047 ft | 454 kts | 270° |
| 2026-04-26 16:15 | 21.21509 | -161.68502 | 36053 ft | 454 kts | 270° |
| 2026-04-26 16:15 | 21.21357 | -161.75277 | 36054 ft | 454 kts | 270° |
| 2026-04-26 16:16 | 21.21125 | -161.85435 | 36054 ft | 454 kts | 270° |
| 2026-04-26 16:16 | 21.20966 | -161.92211 | 36052 ft | 454 kts | 270° |
| 2026-04-26 16:17 | 21.20805 | -161.98993 | 36056 ft | 455 kts | 270° |
| 2026-04-26 16:17 | 21.20641 | -162.05766 | 36052 ft | 455 kts | 270° |
| 2026-04-26 16:18 | 21.20391 | -162.15904 | 36058 ft | 455 kts | 270° |
| 2026-04-26 16:19 | 21.20133 | -162.26089 | 36051 ft | 455 kts | 269° |
| 2026-04-26 16:20 | 21.19870 | -162.36252 | 36059 ft | 456 kts | 269° |
| 2026-04-26 16:20 | 21.19600 | -162.46467 | 36060 ft | 457 kts | 269° |
| 2026-04-26 16:21 | 21.19416 | -162.53280 | 36060 ft | 457 kts | 269° |
| 2026-04-26 16:21 | 21.19230 | -162.60057 | 36060 ft | 457 kts | 269° |
| 2026-04-26 16:22 | 21.19041 | -162.66884 | 36055 ft | 457 kts | 269° |
| 2026-04-26 16:22 | 21.18849 | -162.73671 | 36058 ft | 458 kts | 269° |
| 2026-04-26 16:23 | 21.18654 | -162.80502 | 36060 ft | 458 kts | 269° |
| 2026-04-26 16:23 | 21.18457 | -162.87300 | 36060 ft | 458 kts | 269° |
| 2026-04-26 16:24 | 21.18256 | -162.94136 | 36060 ft | 458 kts | 269° |
| 2026-04-26 16:24 | 21.18053 | -163.00965 | 36058 ft | 458 kts | 269° |
| 2026-04-26 16:25 | 21.17846 | -163.07798 | 36061 ft | 458 kts | 269° |
| 2026-04-26 16:25 | 21.17638 | -163.14586 | 36060 ft | 459 kts | 269° |
| 2026-04-26 16:26 | 21.17461 | -163.20322 | 36057 ft | 459 kts | 269° |
| 2026-04-26 16:26 | 21.17212 | -163.28258 | 36063 ft | 459 kts | 269° |
| 2026-04-26 16:27 | 21.16994 | -163.35100 | 36061 ft | 459 kts | 269° |
| 2026-04-26 16:27 | 21.16775 | -163.41902 | 36066 ft | 459 kts | 269° |
| 2026-04-26 16:28 | 21.16552 | -163.48749 | 36062 ft | 459 kts | 269° |
| 2026-04-26 16:28 | 21.16326 | -163.55600 | 36066 ft | 459 kts | 269° |
| 2026-04-26 16:29 | 21.16097 | -163.62443 | 36068 ft | 459 kts | 269° |
| 2026-04-26 16:29 | 21.15867 | -163.69246 | 36067 ft | 459 kts | 269° |
| 2026-04-26 16:30 | 21.15633 | -163.76091 | 36071 ft | 459 kts | 269° |
| 2026-04-26 16:30 | 21.15396 | -163.82937 | 36076 ft | 459 kts | 269° |
| 2026-04-26 16:31 | 21.15157 | -163.89781 | 36067 ft | 460 kts | 269° |
| 2026-04-26 16:31 | 21.15129 | -163.96622 | 36074 ft | 459 kts | 272° |
| 2026-04-26 16:32 | 21.15236 | -164.02318 | 36067 ft | 459 kts | 272° |
| 2026-04-26 16:32 | 21.15393 | -164.10279 | 36076 ft | 459 kts | 272° |
| 2026-04-26 16:33 | 21.15509 | -164.17121 | 36077 ft | 459 kts | 272° |
| 2026-04-26 16:33 | 21.15613 | -164.23965 | 36077 ft | 459 kts | 272° |
| 2026-04-26 16:34 | 21.15711 | -164.30769 | 36068 ft | 459 kts | 272° |
| 2026-04-26 16:34 | 21.15807 | -164.37619 | 36073 ft | 459 kts | 272° |
| 2026-04-26 16:35 | 21.15901 | -164.44468 | 36078 ft | 459 kts | 272° |
| 2026-04-26 16:35 | 21.15993 | -164.51327 | 36071 ft | 460 kts | 272° |
| 2026-04-26 16:36 | 21.16081 | -164.58142 | 36074 ft | 460 kts | 272° |
| 2026-04-26 16:36 | 21.16167 | -164.64999 | 36079 ft | 460 kts | 272° |
| 2026-04-26 16:37 | 21.16250 | -164.71858 | 36080 ft | 460 kts | 272° |
| 2026-04-26 16:37 | 21.16318 | -164.77561 | 36074 ft | 460 kts | 272° |
| 2026-04-26 16:38 | 21.16408 | -164.85536 | 36083 ft | 460 kts | 271° |
| 2026-04-26 16:38 | 21.16483 | -164.92409 | 36076 ft | 460 kts | 271° |
| 2026-04-26 16:39 | 21.16555 | -164.99234 | 36079 ft | 460 kts | 271° |
| 2026-04-26 16:39 | 21.16635 | -165.07121 | 36062 ft | 460 kts | 272° |
| 2026-04-26 16:40 | 21.16744 | -165.18527 | 36078 ft | 460 kts | 272° |
| 2026-04-26 16:40 | 21.16883 | -165.34475 | 36081 ft | 460 kts | 272° |
| 2026-04-26 16:41 | 21.16975 | -165.45983 | 36080 ft | 460 kts | 271° |
| 2026-04-26 16:41 | 21.17072 | -165.59629 | 36079 ft | 460 kts | 271° |
| 2026-04-26 16:42 | 21.17160 | -165.73363 | 36077 ft | 460 kts | 271° |
| 2026-04-26 16:42 | 21.17237 | -165.87116 | 36078 ft | 460 kts | 271° |
| 2026-04-26 16:43 | 21.17302 | -166.00761 | 36083 ft | 460 kts | 271° |
| 2026-04-26 16:43 | 21.17356 | -166.14508 | 36077 ft | 460 kts | 271° |
| 2026-04-26 16:44 | 21.17399 | -166.28163 | 36088 ft | 460 kts | 271° |
| 2026-04-26 16:44 | 21.17432 | -166.41893 | 36088 ft | 461 kts | 271° |
| 2026-04-26 16:45 | 21.17453 | -166.55622 | 36087 ft | 461 kts | 271° |
| 2026-04-26 16:45 | 21.17463 | -166.69404 | 36088 ft | 461 kts | 271° |
| 2026-04-26 16:46 | 21.17462 | -166.83188 | 36097 ft | 462 kts | 271° |
| 2026-04-26 16:46 | 21.17450 | -166.96847 | 36100 ft | 462 kts | 270° |
| 2026-04-26 16:47 | 21.17426 | -167.10625 | 36101 ft | 462 kts | 271° |
| 2026-04-26 16:47 | 21.17392 | -167.24438 | 36087 ft | 462 kts | 270° |
| 2026-04-26 16:48 | 21.17346 | -167.38255 | 36098 ft | 463 kts | 270° |
| 2026-04-26 16:48 | 21.17290 | -167.51988 | 36101 ft | 463 kts | 270° |
| 2026-04-26 16:49 | 21.17222 | -167.65820 | 36097 ft | 463 kts | 271° |
| 2026-04-26 16:49 | 21.17142 | -167.79660 | 36105 ft | 464 kts | 270° |
| 2026-04-26 16:50 | 21.17051 | -167.93504 | 36099 ft | 464 kts | 270° |
| 2026-04-26 16:50 | 21.16950 | -168.07289 | 36090 ft | 465 kts | 270° |
| 2026-04-26 16:51 | 21.16836 | -168.21138 | 36111 ft | 464 kts | 270° |
| 2026-04-26 16:51 | 21.16712 | -168.34993 | 36096 ft | 465 kts | 270° |
| 2026-04-26 16:52 | 21.16599 | -168.46530 | 36101 ft | 465 kts | 270° |
| 2026-04-26 16:52 | 21.16428 | -168.62773 | 36100 ft | 465 kts | 270° |
| 2026-04-26 16:53 | 21.16270 | -168.76571 | 36104 ft | 465 kts | 270° |
| 2026-04-26 16:53 | 21.16100 | -168.90451 | 36097 ft | 465 kts | 270° |
| 2026-04-26 16:54 | 21.15918 | -169.04341 | 36114 ft | 464 kts | 270° |
| 2026-04-26 16:54 | 21.15727 | -169.18104 | 36103 ft | 464 kts | 270° |
| 2026-04-26 16:55 | 21.15524 | -169.31960 | 36101 ft | 464 kts | 269° |
| 2026-04-26 16:55 | 21.15309 | -169.45765 | 36097 ft | 465 kts | 269° |
| 2026-04-26 16:56 | 21.14966 | -169.66607 | 36109 ft | 466 kts | 270° |
| 2026-04-26 16:57 | 21.14723 | -169.80398 | 36096 ft | 465 kts | 270° |
| 2026-04-26 16:57 | 21.14337 | -170.01205 | 36091 ft | 464 kts | 270° |
| 2026-04-26 16:58 | 21.14113 | -170.12698 | 36097 ft | 463 kts | 269° |
| 2026-04-26 16:59 | 21.13641 | -170.35702 | 36099 ft | 464 kts | 270° |
| 2026-04-26 17:00 | 21.13031 | -170.63399 | 36096 ft | 464 kts | 270° |
| 2026-04-26 17:00 | 21.12547 | -170.84086 | 36080 ft | 465 kts | 269° |
| 2026-04-26 17:01 | 21.12207 | -170.97949 | 36073 ft | 466 kts | 269° |
| 2026-04-26 17:01 | 21.11856 | -171.11847 | 36079 ft | 467 kts | 269° |
| 2026-04-26 17:02 | 21.11495 | -171.25754 | 36082 ft | 467 kts | 270° |
| 2026-04-26 17:02 | 21.11120 | -171.39657 | 36092 ft | 467 kts | 269° |
| 2026-04-26 17:03 | 21.10737 | -171.53482 | 36103 ft | 467 kts | 269° |
| 2026-04-26 17:03 | 21.10338 | -171.67443 | 36089 ft | 468 kts | 270° |
| 2026-04-26 17:04 | 21.09930 | -171.81394 | 36096 ft | 468 kts | 270° |
| 2026-04-26 17:04 | 21.09511 | -171.95274 | 36093 ft | 468 kts | 270° |
| 2026-04-26 17:05 | 21.09024 | -172.09233 | 36089 ft | 469 kts | 270° |
| 2026-04-26 17:05 | 21.08478 | -172.23221 | 36099 ft | 468 kts | 269° |
| 2026-04-26 17:06 | 21.07935 | -172.37104 | 36125 ft | 468 kts | 270° |
| 2026-04-26 17:06 | 21.07379 | -172.51095 | 36095 ft | 470 kts | 269° |
| 2026-04-26 17:07 | 21.06812 | -172.65080 | 36139 ft | 470 kts | 269° |
| 2026-04-26 17:07 | 21.06227 | -172.79128 | 36078 ft | 473 kts | 269° |
| 2026-04-26 17:08 | 21.05634 | -172.93153 | 36082 ft | 474 kts | 270° |
| 2026-04-26 17:08 | 21.05026 | -173.07318 | 36080 ft | 476 kts | 269° |
| 2026-04-26 17:09 | 21.04533 | -173.18525 | 36061 ft | 477 kts | 270° |
| 2026-04-26 17:09 | 21.03863 | -173.33563 | 36080 ft | 480 kts | 270° |
| 2026-04-26 17:10 | 21.03211 | -173.47896 | 36068 ft | 483 kts | 270° |
| 2026-04-26 17:10 | 21.02562 | -173.61886 | 36038 ft | 485 kts | 270° |
| 2026-04-26 17:11 | 21.02007 | -173.73708 | 36070 ft | 484 kts | 270° |
| 2026-04-26 17:11 | 21.01320 | -173.88016 | 36130 ft | 480 kts | 269° |
| 2026-04-26 17:12 | 21.00385 | -174.07190 | 36082 ft | 481 kts | 269° |
| 2026-04-26 17:13 | 20.99316 | -174.28545 | 36083 ft | 481 kts | 269° |
| 2026-04-26 17:14 | 20.98213 | -174.50076 | 36072 ft | 484 kts | 269° |
| 2026-04-26 17:14 | 20.97075 | -174.71735 | 36065 ft | 486 kts | 269° |
| 2026-04-26 17:15 | 20.95908 | -174.93404 | 36062 ft | 489 kts | 269° |
| 2026-04-26 17:16 | 20.95110 | -175.07952 | 36058 ft | 490 kts | 269° |
| 2026-04-26 17:16 | 20.94295 | -175.22564 | 36095 ft | 492 kts | 269° |
| 2026-04-26 17:17 | 20.93580 | -175.35220 | 36090 ft | 493 kts | 269° |
| 2026-04-26 17:17 | 20.92796 | -175.48903 | 36097 ft | 494 kts | 269° |
| 2026-04-26 17:18 | 20.91948 | -175.63474 | 36112 ft | 495 kts | 269° |
| 2026-04-26 17:18 | 20.91244 | -175.75424 | 36122 ft | 495 kts | 269° |
| 2026-04-26 17:19 | 20.90403 | -175.89535 | 36068 ft | 497 kts | 269° |
| 2026-04-26 17:19 | 20.89509 | -176.04290 | 36068 ft | 496 kts | 269° |
| 2026-04-26 17:20 | 20.88911 | -176.14051 | 36073 ft | 496 kts | 269° |
| 2026-04-26 17:20 | 20.87692 | -176.33676 | 36071 ft | 497 kts | 269° |
| 2026-04-26 17:21 | 20.86760 | -176.48439 | 36081 ft | 497 kts | 269° |
| 2026-04-26 17:21 | 20.85814 | -176.63226 | 36067 ft | 499 kts | 269° |
| 2026-04-26 17:22 | 20.84850 | -176.78090 | 36085 ft | 500 kts | 269° |
| 2026-04-26 17:22 | 20.83879 | -176.92867 | 36078 ft | 502 kts | 269° |
| 2026-04-26 17:23 | 20.82885 | -177.07799 | 36078 ft | 503 kts | 269° |
| 2026-04-26 17:23 | 20.81875 | -177.22770 | 36081 ft | 504 kts | 269° |
| 2026-04-26 17:24 | 20.80851 | -177.37749 | 36067 ft | 505 kts | 269° |
| 2026-04-26 17:24 | 20.79818 | -177.52667 | 36077 ft | 506 kts | 269° |
| 2026-04-26 17:25 | 20.78766 | -177.67679 | 36080 ft | 506 kts | 268° |
| 2026-04-26 17:25 | 20.77700 | -177.82688 | 36072 ft | 506 kts | 269° |
| 2026-04-26 17:26 | 20.76805 | -177.95160 | 36081 ft | 506 kts | 269° |
| 2026-04-26 17:26 | 20.75715 | -178.10172 | 36065 ft | 506 kts | 269° |
| 2026-04-26 17:27 | 20.74611 | -178.25208 | 36071 ft | 507 kts | 269° |
| 2026-04-26 17:27 | 20.73494 | -178.40221 | 36077 ft | 507 kts | 269° |
| 2026-04-26 17:28 | 20.72369 | -178.55185 | 36070 ft | 508 kts | 269° |
| 2026-04-26 17:28 | 20.71220 | -178.70276 | 36077 ft | 509 kts | 269° |
| 2026-04-26 17:29 | 20.70255 | -178.82828 | 36080 ft | 510 kts | 268° |
| 2026-04-26 17:29 | 20.68883 | -179.00468 | 36080 ft | 511 kts | 268° |
| 2026-04-26 17:30 | 20.67697 | -179.15525 | 36081 ft | 511 kts | 268° |
| 2026-04-26 17:30 | 20.66488 | -179.30701 | 36081 ft | 512 kts | 268° |
| 2026-04-26 17:31 | 20.65268 | -179.45862 | 36069 ft | 512 kts | 268° |
| 2026-04-26 17:31 | 20.64039 | -179.60955 | 36067 ft | 512 kts | 268° |
| 2026-04-26 17:32 | 20.62792 | -179.76104 | 36069 ft | 512 kts | 268° |
| 2026-04-26 17:32 | 20.61531 | -179.91270 | 36068 ft | 512 kts | 268° |
| 2026-04-26 17:33 | 20.60233 | 179.93554 | 36064 ft | 512 kts | 268° |
| 2026-04-26 17:34 | 20.58155 | 179.70955 | 36070 ft | 512 kts | 268° |
| 2026-04-26 17:34 | 20.56759 | 179.55820 | 36062 ft | 512 kts | 268° |
| 2026-04-26 17:35 | 20.55349 | 179.40675 | 36069 ft | 512 kts | 268° |
| 2026-04-26 17:35 | 20.53924 | 179.25521 | 36068 ft | 512 kts | 267° |
| 2026-04-26 17:36 | 20.52495 | 179.10467 | 36066 ft | 513 kts | 267° |
| 2026-04-26 17:36 | 20.51043 | 178.95311 | 36068 ft | 513 kts | 267° |
| 2026-04-26 17:37 | 20.49575 | 178.80131 | 36060 ft | 513 kts | 267° |
| 2026-04-26 17:37 | 20.48107 | 178.65077 | 36070 ft | 513 kts | 267° |
| 2026-04-26 17:38 | 20.45860 | 178.42308 | 36061 ft | 514 kts | 267° |
| 2026-04-26 17:38 | 20.44347 | 178.27149 | 36066 ft | 514 kts | 267° |
| 2026-04-26 17:39 | 20.42829 | 178.12065 | 36069 ft | 514 kts | 266° |
| 2026-04-26 17:39 | 20.41284 | 177.96853 | 36066 ft | 514 kts | 266° |
| 2026-04-26 17:40 | 20.39992 | 177.84238 | 36069 ft | 514 kts | 266° |
| 2026-04-26 17:40 | 20.38171 | 177.66599 | 36056 ft | 514 kts | 266° |
| 2026-04-26 17:41 | 20.36591 | 177.51438 | 36067 ft | 514 kts | 266° |
| 2026-04-26 17:41 | 20.34994 | 177.36240 | 36065 ft | 515 kts | 266° |
| 2026-04-26 17:42 | 20.33387 | 177.21080 | 36066 ft | 515 kts | 266° |
| 2026-04-26 17:42 | 20.31769 | 177.05934 | 36074 ft | 515 kts | 266° |
| 2026-04-26 17:43 | 20.30135 | 176.90770 | 36052 ft | 515 kts | 266° |
| 2026-04-26 17:43 | 20.28498 | 176.75702 | 36066 ft | 515 kts | 266° |
| 2026-04-26 17:44 | 20.26838 | 176.60537 | 36074 ft | 515 kts | 266° |
| 2026-04-26 17:44 | 20.25163 | 176.45370 | 36067 ft | 516 kts | 266° |
| 2026-04-26 17:45 | 20.23482 | 176.30261 | 36064 ft | 516 kts | 266° |
| 2026-04-26 17:45 | 20.21778 | 176.15068 | 36056 ft | 516 kts | 265° |
| 2026-04-26 17:46 | 20.20069 | 175.99947 | 36067 ft | 516 kts | 265° |
| 2026-04-26 17:46 | 20.18335 | 175.84732 | 36067 ft | 516 kts | 265° |
| 2026-04-26 17:47 | 20.16884 | 175.72086 | 36060 ft | 516 kts | 265° |
| 2026-04-26 17:47 | 20.14832 | 175.54336 | 36063 ft | 516 kts | 265° |
| 2026-04-26 17:48 | 20.13071 | 175.39227 | 36053 ft | 516 kts | 265° |
| 2026-04-26 17:48 | 20.11286 | 175.24032 | 36061 ft | 516 kts | 265° |
| 2026-04-26 17:49 | 20.09501 | 175.08944 | 36063 ft | 516 kts | 265° |
| 2026-04-26 17:49 | 20.07691 | 174.93761 | 36063 ft | 516 kts | 265° |
| 2026-04-26 17:50 | 20.05867 | 174.78573 | 36065 ft | 516 kts | 265° |
| 2026-04-26 17:50 | 20.04040 | 174.63471 | 36054 ft | 516 kts | 265° |
| 2026-04-26 17:51 | 20.02190 | 174.48295 | 36061 ft | 516 kts | 265° |
| 2026-04-26 17:51 | 20.00340 | 174.33223 | 36060 ft | 517 kts | 265° |
| 2026-04-26 17:52 | 19.98463 | 174.18038 | 36060 ft | 517 kts | 264° |
| 2026-04-26 17:52 | 19.96577 | 174.02884 | 36061 ft | 517 kts | 264° |
| 2026-04-26 17:53 | 19.94689 | 173.87826 | 36052 ft | 517 kts | 264° |
| 2026-04-26 17:54 | 19.91816 | 173.65106 | 36063 ft | 516 kts | 264° |
| 2026-04-26 17:54 | 19.89884 | 173.49955 | 36057 ft | 516 kts | 264° |
| 2026-04-26 17:55 | 19.87956 | 173.34936 | 36057 ft | 516 kts | 264° |
| 2026-04-26 17:55 | 19.85944 | 173.19812 | 36056 ft | 516 kts | 264° |
| 2026-04-26 17:56 | 19.83876 | 173.04711 | 36061 ft | 516 kts | 264° |
| 2026-04-26 17:57 | 19.79743 | 172.74616 | 36057 ft | 516 kts | 264° |
| 2026-04-26 17:57 | 19.77653 | 172.59542 | 36055 ft | 516 kts | 264° |
| 2026-04-26 17:58 | 19.73429 | 172.29362 | 36056 ft | 515 kts | 263° |
| 2026-04-26 17:59 | 19.70245 | 172.06859 | 36056 ft | 515 kts | 263° |
| 2026-04-26 17:59 | 19.68127 | 171.91999 | 36065 ft | 515 kts | 263° |
| 2026-04-26 18:00 | 19.67049 | 171.84471 | 36058 ft | 515 kts | 263° |
| 2026-04-26 18:00 | 19.65969 | 171.76952 | 36278 ft | 521 kts | 263° |
| 2026-04-26 18:01 | 19.65423 | 171.73157 | 36671 ft | 519 kts | 263° |
| 2026-04-26 18:01 | 19.64878 | 171.69384 | 37142 ft | 515 kts | 263° |
| 2026-04-26 18:01 | 19.64336 | 171.65637 | 37597 ft | 512 kts | 263° |
| 2026-04-26 18:01 | 19.63796 | 171.61910 | 38025 ft | 509 kts | 264° |
| 2026-04-26 18:02 | 19.63080 | 171.56960 | 38037 ft | 514 kts | 264° |
| 2026-04-26 18:02 | 19.61634 | 171.47009 | 38048 ft | 509 kts | 263° |
| 2026-04-26 18:03 | 19.60553 | 171.39600 | 38061 ft | 506 kts | 263° |
| 2026-04-26 18:03 | 19.59480 | 171.32260 | 38060 ft | 505 kts | 263° |
| 2026-04-26 18:04 | 19.58397 | 171.24873 | 38067 ft | 505 kts | 263° |
| 2026-04-26 18:05 | 19.56774 | 171.13842 | 38056 ft | 506 kts | 263° |
| 2026-04-26 18:05 | 19.55681 | 171.06447 | 38057 ft | 507 kts | 263° |
| 2026-04-26 18:06 | 19.54585 | 170.99045 | 38057 ft | 508 kts | 263° |
| 2026-04-26 18:06 | 19.53490 | 170.91677 | 38055 ft | 509 kts | 263° |
| 2026-04-26 18:07 | 19.52386 | 170.84269 | 38058 ft | 509 kts | 263° |
| 2026-04-26 18:07 | 19.50256 | 170.70035 | 38059 ft | 510 kts | 263° |
| 2026-04-26 18:08 | 19.48020 | 170.55175 | 38057 ft | 510 kts | 263° |
| 2026-04-26 18:08 | 19.45773 | 170.40331 | 38062 ft | 510 kts | 263° |
| 2026-04-26 18:09 | 19.43512 | 170.25472 | 38057 ft | 510 kts | 263° |
| 2026-04-26 18:09 | 19.41255 | 170.10729 | 38052 ft | 510 kts | 263° |
| 2026-04-26 18:10 | 19.39359 | 169.98399 | 38057 ft | 509 kts | 263° |
| 2026-04-26 18:10 | 19.36679 | 169.81072 | 38054 ft | 509 kts | 263° |
| 2026-04-26 18:11 | 19.34390 | 169.66366 | 38055 ft | 509 kts | 263° |
| 2026-04-26 18:11 | 19.32076 | 169.51575 | 38055 ft | 509 kts | 263° |
| 2026-04-26 18:12 | 19.30143 | 169.39280 | 38051 ft | 509 kts | 262° |
| 2026-04-26 18:12 | 19.27805 | 169.24480 | 38054 ft | 509 kts | 262° |
| 2026-04-26 18:13 | 19.25457 | 169.09701 | 38049 ft | 509 kts | 262° |
| 2026-04-26 18:13 | 19.23097 | 168.94926 | 38055 ft | 509 kts | 262° |
| 2026-04-26 18:14 | 19.20741 | 168.80248 | 38054 ft | 509 kts | 262° |
| 2026-04-26 18:14 | 19.18357 | 168.65480 | 38051 ft | 509 kts | 262° |
| 2026-04-26 18:15 | 19.15960 | 168.50702 | 38052 ft | 509 kts | 262° |
| 2026-04-26 18:15 | 19.13568 | 168.36037 | 38057 ft | 509 kts | 262° |
| 2026-04-26 18:16 | 19.11136 | 168.21201 | 38056 ft | 509 kts | 262° |
| 2026-04-26 18:16 | 19.07501 | 167.99166 | 38051 ft | 509 kts | 262° |
| 2026-04-26 18:17 | 19.05049 | 167.84401 | 38056 ft | 509 kts | 262° |
| 2026-04-26 18:17 | 19.02593 | 167.69683 | 38049 ft | 508 kts | 262° |
| 2026-04-26 18:18 | 19.00141 | 167.55061 | 38049 ft | 508 kts | 262° |
| 2026-04-26 18:18 | 18.97659 | 167.40340 | 38057 ft | 508 kts | 262° |
| 2026-04-26 18:19 | 18.95166 | 167.25619 | 38052 ft | 508 kts | 261° |
| 2026-04-26 18:19 | 18.92681 | 167.11021 | 38047 ft | 508 kts | 261° |
| 2026-04-26 18:20 | 18.90170 | 166.96344 | 38047 ft | 508 kts | 261° |
| 2026-04-26 18:20 | 18.88056 | 166.84037 | 38032 ft | 508 kts | 261° |
| 2026-04-26 18:21 | 18.85105 | 166.66957 | 38044 ft | 508 kts | 261° |
| 2026-04-26 18:21 | 18.82517 | 166.52299 | 38045 ft | 508 kts | 261° |
| 2026-04-26 18:22 | 18.79914 | 166.37611 | 38045 ft | 507 kts | 261° |
| 2026-04-26 18:22 | 18.77325 | 166.23050 | 38049 ft | 507 kts | 261° |
| 2026-04-26 18:23 | 18.74711 | 166.08422 | 38046 ft | 506 kts | 261° |
| 2026-04-26 18:23 | 18.72103 | 165.93900 | 38049 ft | 506 kts | 261° |
| 2026-04-26 18:24 | 18.69470 | 165.79300 | 38046 ft | 506 kts | 261° |
| 2026-04-26 18:24 | 18.66828 | 165.64718 | 38046 ft | 505 kts | 260° |
| 2026-04-26 18:25 | 18.64180 | 165.50169 | 38046 ft | 505 kts | 260° |
| 2026-04-26 18:25 | 18.61517 | 165.35603 | 38045 ft | 505 kts | 260° |
| 2026-04-26 18:26 | 18.58864 | 165.21161 | 38048 ft | 504 kts | 260° |
| 2026-04-26 18:26 | 18.56183 | 165.06628 | 38043 ft | 504 kts | 260° |
| 2026-04-26 18:27 | 18.53491 | 164.92099 | 38043 ft | 504 kts | 260° |
| 2026-04-26 18:27 | 18.50787 | 164.77571 | 38045 ft | 504 kts | 260° |
| 2026-04-26 18:28 | 18.48094 | 164.63168 | 38042 ft | 504 kts | 260° |
| 2026-04-26 18:28 | 18.45372 | 164.48670 | 38037 ft | 503 kts | 260° |
| 2026-04-26 18:29 | 18.42644 | 164.34208 | 38030 ft | 503 kts | 260° |
| 2026-04-26 18:29 | 18.39920 | 164.19826 | 38039 ft | 502 kts | 260° |
| 2026-04-26 18:30 | 18.37173 | 164.05382 | 38046 ft | 502 kts | 260° |
| 2026-04-26 18:30 | 18.34416 | 163.90952 | 38061 ft | 502 kts | 260° |
| 2026-04-26 18:31 | 18.31671 | 163.76642 | 38044 ft | 501 kts | 259° |
| 2026-04-26 18:31 | 18.28899 | 163.62254 | 38040 ft | 501 kts | 259° |
| 2026-04-26 18:32 | 18.26115 | 163.47864 | 38044 ft | 501 kts | 259° |
| 2026-04-26 18:32 | 18.23321 | 163.33477 | 38040 ft | 501 kts | 259° |
| 2026-04-26 18:33 | 18.20538 | 163.19211 | 38041 ft | 501 kts | 259° |
| 2026-04-26 18:33 | 18.17725 | 163.04853 | 38033 ft | 501 kts | 259° |
| 2026-04-26 18:34 | 18.14896 | 162.90469 | 38034 ft | 500 kts | 259° |
| 2026-04-26 18:34 | 18.12066 | 162.76141 | 38031 ft | 500 kts | 259° |
| 2026-04-26 18:35 | 18.09240 | 162.61887 | 38026 ft | 500 kts | 259° |
| 2026-04-26 18:35 | 18.06394 | 162.47591 | 38027 ft | 500 kts | 259° |
| 2026-04-26 18:36 | 18.03550 | 162.33364 | 38037 ft | 500 kts | 259° |
| 2026-04-26 18:36 | 18.00678 | 162.19050 | 38037 ft | 499 kts | 259° |
| 2026-04-26 18:37 | 17.97795 | 162.04745 | 38033 ft | 499 kts | 258° |
| 2026-04-26 18:37 | 17.94919 | 161.90526 | 38031 ft | 499 kts | 258° |
| 2026-04-26 18:38 | 17.92017 | 161.76237 | 38028 ft | 500 kts | 259° |
| 2026-04-26 18:38 | 17.89105 | 161.61956 | 38029 ft | 500 kts | 258° |
| 2026-04-26 18:39 | 17.86183 | 161.47679 | 38033 ft | 500 kts | 258° |
| 2026-04-26 18:39 | 17.83260 | 161.33449 | 38024 ft | 501 kts | 258° |
| 2026-04-26 18:40 | 17.80308 | 161.19138 | 38013 ft | 501 kts | 258° |
| 2026-04-26 18:40 | 17.77347 | 161.04838 | 38020 ft | 501 kts | 258° |
| 2026-04-26 18:41 | 17.74393 | 160.90626 | 38022 ft | 501 kts | 258° |
| 2026-04-26 18:41 | 17.71408 | 160.76316 | 38021 ft | 501 kts | 257° |
| 2026-04-26 18:42 | 17.68416 | 160.62034 | 38025 ft | 501 kts | 257° |
| 2026-04-26 18:42 | 17.65422 | 160.47789 | 38028 ft | 497 kts | 257° |
| 2026-04-26 18:43 | 17.62459 | 160.33751 | 38017 ft | 492 kts | 257° |
| 2026-04-26 18:43 | 17.59497 | 160.19763 | 38028 ft | 491 kts | 257° |
| 2026-04-26 18:44 | 17.56520 | 160.05755 | 38028 ft | 492 kts | 257° |
| 2026-04-26 18:44 | 17.53548 | 159.91823 | 38026 ft | 492 kts | 257° |
| 2026-04-26 18:45 | 17.50554 | 159.77838 | 38016 ft | 493 kts | 257° |
| 2026-04-26 18:45 | 17.47543 | 159.63825 | 38022 ft | 492 kts | 257° |
| 2026-04-26 18:46 | 17.44527 | 159.49837 | 38011 ft | 491 kts | 256° |
| 2026-04-26 18:46 | 17.41508 | 159.35887 | 38014 ft | 491 kts | 256° |
| 2026-04-26 18:47 | 17.38474 | 159.21918 | 38010 ft | 491 kts | 256° |
| 2026-04-26 18:47 | 17.35454 | 159.08060 | 38007 ft | 491 kts | 256° |
| 2026-04-26 18:48 | 17.32403 | 158.94109 | 38019 ft | 491 kts | 256° |
| 2026-04-26 18:48 | 17.29341 | 158.80159 | 38022 ft | 492 kts | 256° |
| 2026-04-26 18:49 | 17.26263 | 158.66184 | 38023 ft | 492 kts | 256° |
| 2026-04-26 18:49 | 17.23191 | 158.52284 | 38019 ft | 492 kts | 257° |
| 2026-04-26 18:50 | 17.20094 | 158.38314 | 38018 ft | 492 kts | 257° |
| 2026-04-26 18:50 | 17.16991 | 158.24370 | 38018 ft | 491 kts | 257° |
| 2026-04-26 18:51 | 17.13903 | 158.10539 | 38019 ft | 490 kts | 256° |
| 2026-04-26 18:51 | 17.10796 | 157.96669 | 38016 ft | 488 kts | 256° |
| 2026-04-26 18:52 | 17.07690 | 157.82846 | 38016 ft | 487 kts | 256° |
| 2026-04-26 18:52 | 17.04591 | 157.69113 | 38007 ft | 486 kts | 256° |
| 2026-04-26 18:53 | 17.01477 | 157.55372 | 38008 ft | 485 kts | 256° |
| 2026-04-26 18:53 | 16.98357 | 157.41643 | 37996 ft | 485 kts | 256° |
| 2026-04-26 18:54 | 16.95248 | 157.28008 | 37995 ft | 484 kts | 256° |
| 2026-04-26 18:54 | 16.92119 | 157.14329 | 38003 ft | 483 kts | 256° |
| 2026-04-26 18:55 | 16.89249 | 157.01819 | 37996 ft | 482 kts | 256° |
| 2026-04-26 18:55 | 16.86219 | 156.88655 | 38021 ft | 480 kts | 257° |
| 2026-04-26 18:56 | 16.83112 | 156.75199 | 37992 ft | 478 kts | 257° |
| 2026-04-26 18:56 | 16.80000 | 156.61760 | 37984 ft | 475 kts | 257° |
| 2026-04-26 18:57 | 16.77920 | 156.52808 | 38013 ft | 471 kts | 257° |
| 2026-04-26 18:57 | 16.73866 | 156.35398 | 37993 ft | 458 kts | 257° |
| 2026-04-26 18:58 | 16.70847 | 156.22477 | 38009 ft | 459 kts | 257° |
| 2026-04-26 18:58 | 16.67794 | 156.09456 | 38004 ft | 462 kts | 257° |
| 2026-04-26 18:59 | 16.64738 | 155.96460 | 37998 ft | 464 kts | 257° |
| 2026-04-26 18:59 | 16.62170 | 155.85564 | 37996 ft | 463 kts | 257° |
| 2026-04-26 19:00 | 16.59099 | 155.72577 | 37983 ft | 458 kts | 257° |
| 2026-04-26 19:00 | 16.56063 | 155.59768 | 37994 ft | 454 kts | 257° |
| 2026-04-26 19:01 | 16.53034 | 155.47030 | 37972 ft | 450 kts | 257° |
| 2026-04-26 19:01 | 16.50028 | 155.34422 | 37997 ft | 448 kts | 257° |
| 2026-04-26 19:02 | 16.47009 | 155.21799 | 37985 ft | 449 kts | 257° |
| 2026-04-26 19:02 | 16.44488 | 155.11282 | 37985 ft | 450 kts | 257° |
| 2026-04-26 19:03 | 16.40916 | 154.96423 | 37994 ft | 453 kts | 256° |
| 2026-04-26 19:03 | 16.37856 | 154.83736 | 37957 ft | 454 kts | 256° |
| 2026-04-26 19:04 | 16.35001 | 154.71929 | 37990 ft | 454 kts | 256° |
| 2026-04-26 19:04 | 16.31913 | 154.59194 | 38018 ft | 453 kts | 256° |
| 2026-04-26 19:05 | 16.27467 | 154.40917 | 37975 ft | 453 kts | 256° |
| 2026-04-26 19:06 | 16.24363 | 154.28199 | 38022 ft | 451 kts | 256° |
| 2026-04-26 19:06 | 16.21279 | 154.15603 | 37994 ft | 451 kts | 255° |
| 2026-04-26 19:07 | 16.18176 | 154.02960 | 37983 ft | 450 kts | 255° |
| 2026-04-26 19:07 | 16.15064 | 153.90315 | 37976 ft | 450 kts | 255° |
| 2026-04-26 19:08 | 16.11976 | 153.77802 | 37971 ft | 449 kts | 255° |
| 2026-04-26 19:08 | 16.08864 | 153.65225 | 37972 ft | 448 kts | 255° |
| 2026-04-26 19:09 | 16.05746 | 153.52657 | 37973 ft | 448 kts | 255° |
| 2026-04-26 19:09 | 16.02646 | 153.40193 | 37978 ft | 447 kts | 255° |
| 2026-04-26 19:10 | 15.99513 | 153.27633 | 37971 ft | 447 kts | 255° |
| 2026-04-26 19:10 | 15.96384 | 153.15120 | 37975 ft | 447 kts | 255° |
| 2026-04-26 19:11 | 15.93243 | 153.02592 | 37974 ft | 447 kts | 254° |
| 2026-04-26 19:11 | 15.90111 | 152.90135 | 37970 ft | 447 kts | 254° |
| 2026-04-26 19:12 | 15.86955 | 152.77609 | 37968 ft | 447 kts | 254° |
| 2026-04-26 19:12 | 15.83795 | 152.65106 | 37965 ft | 447 kts | 254° |
| 2026-04-26 19:13 | 15.80644 | 152.52665 | 37965 ft | 447 kts | 254° |
| 2026-04-26 19:13 | 15.77462 | 152.40138 | 37955 ft | 447 kts | 254° |
| 2026-04-26 19:14 | 15.74295 | 152.27704 | 37968 ft | 447 kts | 254° |
| 2026-04-26 19:14 | 15.71101 | 152.15191 | 37963 ft | 447 kts | 254° |
| 2026-04-26 19:15 | 15.67907 | 152.02712 | 37950 ft | 448 kts | 254° |
| 2026-04-26 19:15 | 15.64716 | 151.90272 | 37966 ft | 448 kts | 254° |
| 2026-04-26 19:16 | 15.61498 | 151.77762 | 37959 ft | 448 kts | 254° |
| 2026-04-26 19:16 | 15.58272 | 151.65254 | 37963 ft | 448 kts | 253° |
| 2026-04-26 19:17 | 15.55058 | 151.52822 | 37956 ft | 448 kts | 253° |
| 2026-04-26 19:17 | 15.51806 | 151.40274 | 37963 ft | 449 kts | 253° |
| 2026-04-26 19:18 | 15.48570 | 151.27818 | 37961 ft | 449 kts | 253° |
| 2026-04-26 19:18 | 15.45302 | 151.15270 | 37961 ft | 450 kts | 253° |
| 2026-04-26 19:19 | 15.42032 | 151.02743 | 37947 ft | 450 kts | 253° |
| 2026-04-26 19:19 | 15.38762 | 150.90252 | 37949 ft | 451 kts | 253° |
| 2026-04-26 19:20 | 15.35461 | 150.77671 | 37947 ft | 452 kts | 253° |
| 2026-04-26 19:20 | 15.32150 | 150.65079 | 37950 ft | 454 kts | 254° |
| 2026-04-26 19:21 | 15.28833 | 150.52500 | 37945 ft | 455 kts | 253° |
| 2026-04-26 19:21 | 15.25481 | 150.39816 | 37944 ft | 457 kts | 253° |
| 2026-04-26 19:22 | 15.22105 | 150.27075 | 37915 ft | 459 kts | 254° |
| 2026-04-26 19:22 | 15.19117 | 150.15825 | 37908 ft | 457 kts | 254° |
| 2026-04-26 19:23 | 15.16457 | 150.05825 | 37971 ft | 456 kts | 254° |
| 2026-04-26 19:23 | 15.13401 | 149.94368 | 37888 ft | 457 kts | 254° |
| 2026-04-26 19:24 | 15.10498 | 149.83502 | 37970 ft | 456 kts | 254° |
| 2026-04-26 19:24 | 15.05421 | 149.64555 | 37960 ft | 457 kts | 254° |
| 2026-04-26 19:25 | 15.02582 | 149.53992 | 37960 ft | 459 kts | 254° |
| 2026-04-26 19:25 | 14.98588 | 149.39164 | 37929 ft | 461 kts | 254° |
| 2026-04-26 19:26 | 14.95133 | 149.26366 | 37925 ft | 462 kts | 254° |
| 2026-04-26 19:26 | 14.91664 | 149.13550 | 37925 ft | 463 kts | 254° |
| 2026-04-26 19:27 | 14.88204 | 149.00795 | 37910 ft | 464 kts | 254° |
| 2026-04-26 19:27 | 14.84584 | 148.87975 | 37915 ft | 465 kts | 253° |
| 2026-04-26 19:28 | 14.80862 | 148.75131 | 37919 ft | 466 kts | 254° |
| 2026-04-26 19:28 | 14.77172 | 148.62338 | 37937 ft | 468 kts | 254° |
| 2026-04-26 19:29 | 14.73437 | 148.49417 | 37935 ft | 469 kts | 253° |
| 2026-04-26 19:29 | 14.70711 | 148.40005 | 37931 ft | 471 kts | 253° |
| 2026-04-26 19:30 | 14.68837 | 148.33544 | 37938 ft | 471 kts | 254° |
| 2026-04-26 19:30 | 14.67270 | 148.28148 | 37912 ft | 472 kts | 254° |
| 2026-04-26 19:31 | 14.65060 | 148.20546 | 37926 ft | 471 kts | 253° |
| 2026-04-26 19:31 | 14.63182 | 148.14093 | 37927 ft | 472 kts | 255° |
| 2026-04-26 19:32 | 14.61291 | 148.07602 | 37931 ft | 472 kts | 254° |
| 2026-04-26 19:32 | 14.59392 | 148.01092 | 37929 ft | 473 kts | 254° |
| 2026-04-26 19:33 | 14.57501 | 147.94615 | 37923 ft | 473 kts | 254° |
| 2026-04-26 19:33 | 14.55596 | 147.88098 | 37918 ft | 473 kts | 254° |
| 2026-04-26 19:34 | 14.53690 | 147.81590 | 37919 ft | 472 kts | 254° |
| 2026-04-26 19:34 | 14.51799 | 147.75135 | 37912 ft | 471 kts | 254° |
| 2026-04-26 19:35 | 14.49901 | 147.68667 | 37917 ft | 470 kts | 254° |
| 2026-04-26 19:35 | 14.48005 | 147.62212 | 37925 ft | 469 kts | 255° |
| 2026-04-26 19:36 | 14.46737 | 147.57898 | 37921 ft | 469 kts | 255° |
| 2026-04-26 19:36 | 14.44205 | 147.49289 | 37915 ft | 471 kts | 255° |
| 2026-04-26 19:37 | 14.42308 | 147.42850 | 37923 ft | 472 kts | 254° |
| 2026-04-26 19:37 | 14.40395 | 147.36363 | 37915 ft | 473 kts | 255° |
| 2026-04-26 19:38 | 14.38471 | 147.29849 | 37920 ft | 475 kts | 254° |
| 2026-04-26 19:38 | 14.36549 | 147.23347 | 37924 ft | 475 kts | 254° |
| 2026-04-26 19:39 | 14.34616 | 147.16811 | 37926 ft | 476 kts | 254° |
| 2026-04-26 19:39 | 14.32679 | 147.10276 | 37912 ft | 476 kts | 254° |
| 2026-04-26 19:40 | 14.30749 | 147.03767 | 37914 ft | 477 kts | 254° |
| 2026-04-26 19:40 | 14.28807 | 146.97225 | 37921 ft | 477 kts | 254° |
| 2026-04-26 19:41 | 14.26858 | 146.90665 | 37919 ft | 478 kts | 255° |
| 2026-04-26 19:41 | 14.25565 | 146.86318 | 37917 ft | 478 kts | 254° |
| 2026-04-26 19:42 | 14.22964 | 146.77586 | 37919 ft | 479 kts | 255° |
| 2026-04-26 19:42 | 14.21005 | 146.71012 | 37924 ft | 479 kts | 255° |
| 2026-04-26 19:43 | 14.19053 | 146.64479 | 37597 ft | 473 kts | 253° |
| 2026-04-26 19:43 | 14.18098 | 146.61285 | 37181 ft | 469 kts | 255° |
| 2026-04-26 19:43 | 14.17143 | 146.58088 | 36724 ft | 464 kts | 255° |
| 2026-04-26 19:44 | 14.16191 | 146.54908 | 36269 ft | 460 kts | 255° |
| 2026-04-26 19:44 | 14.15252 | 146.51770 | 35833 ft | 457 kts | 255° |
| 2026-04-26 19:44 | 14.14317 | 146.48646 | 35417 ft | 453 kts | 255° |
| 2026-04-26 19:44 | 14.13403 | 146.45593 | 34982 ft | 450 kts | 255° |
| 2026-04-26 19:45 | 14.12481 | 146.42517 | 34530 ft | 448 kts | 255° |
| 2026-04-26 19:45 | 14.11563 | 146.39454 | 34051 ft | 446 kts | 255° |
| 2026-04-26 19:45 | 14.10652 | 146.36417 | 33548 ft | 445 kts | 256° |
| 2026-04-26 19:45 | 14.09739 | 146.33374 | 33064 ft | 443 kts | 256° |
| 2026-04-26 19:46 | 14.08830 | 146.30348 | 32589 ft | 441 kts | 256° |
| 2026-04-26 19:46 | 14.07927 | 146.27343 | 32135 ft | 438 kts | 256° |
| 2026-04-26 19:46 | 14.07026 | 146.24347 | 31679 ft | 436 kts | 256° |
| 2026-04-26 19:46 | 14.06431 | 146.22368 | 31375 ft | 435 kts | 256° |
| 2026-04-26 19:47 | 14.05535 | 146.19390 | 30919 ft | 433 kts | 256° |
| 2026-04-26 19:47 | 14.04944 | 146.17427 | 30611 ft | 432 kts | 256° |
| 2026-04-26 19:47 | 14.03763 | 146.13503 | 29999 ft | 431 kts | 257° |
| 2026-04-26 19:47 | 14.02881 | 146.10574 | 29477 ft | 429 kts | 257° |
| 2026-04-26 19:48 | 14.01999 | 146.07645 | 28977 ft | 426 kts | 256° |
| 2026-04-26 19:48 | 14.01118 | 146.04724 | 28494 ft | 424 kts | 256° |
| 2026-04-26 19:48 | 14.00256 | 146.01864 | 28037 ft | 421 kts | 256° |
| 2026-04-26 19:48 | 13.99380 | 145.98964 | 27600 ft | 417 kts | 256° |
| 2026-04-26 19:49 | 13.98532 | 145.96158 | 27170 ft | 414 kts | 256° |
| 2026-04-26 19:49 | 13.97679 | 145.93332 | 26754 ft | 411 kts | 256° |
| 2026-04-26 19:49 | 13.96832 | 145.90531 | 26337 ft | 408 kts | 255° |
| 2026-04-26 19:49 | 13.95992 | 145.87751 | 25922 ft | 406 kts | 255° |
| 2026-04-26 19:50 | 13.95156 | 145.84986 | 25501 ft | 403 kts | 255° |
| 2026-04-26 19:50 | 13.94319 | 145.82221 | 25076 ft | 402 kts | 255° |
| 2026-04-26 19:50 | 13.93499 | 145.79509 | 24662 ft | 400 kts | 255° |
| 2026-04-26 19:50 | 13.92672 | 145.76779 | 24244 ft | 398 kts | 255° |
| 2026-04-26 19:51 | 13.91848 | 145.74060 | 23829 ft | 397 kts | 255° |
| 2026-04-26 19:51 | 13.91026 | 145.71347 | 23398 ft | 396 kts | 254° |
| 2026-04-26 19:51 | 13.90203 | 145.68633 | 22921 ft | 394 kts | 255° |
| 2026-04-26 19:51 | 13.89389 | 145.65950 | 22497 ft | 391 kts | 254° |
| 2026-04-26 19:52 | 13.88590 | 145.63318 | 22074 ft | 389 kts | 253° |
| 2026-04-26 19:52 | 13.87785 | 145.60668 | 21662 ft | 386 kts | 254° |
| 2026-04-26 19:52 | 13.86986 | 145.58038 | 21242 ft | 383 kts | 253° |
| 2026-04-26 19:52 | 13.86190 | 145.55417 | 20844 ft | 381 kts | 253° |
| 2026-04-26 19:53 | 13.85403 | 145.52826 | 20449 ft | 378 kts | 253° |
| 2026-04-26 19:53 | 13.84619 | 145.50249 | 20049 ft | 376 kts | 252° |
| 2026-04-26 19:53 | 13.83849 | 145.47719 | 19646 ft | 374 kts | 252° |
| 2026-04-26 19:53 | 13.83073 | 145.45168 | 19238 ft | 372 kts | 252° |
| 2026-04-26 19:54 | 13.82301 | 145.42631 | 18822 ft | 370 kts | 251° |
| 2026-04-26 19:54 | 13.81532 | 145.40110 | 18421 ft | 369 kts | 251° |
| 2026-04-26 19:54 | 13.80765 | 145.37591 | 17979 ft | 367 kts | 251° |
| 2026-04-26 19:54 | 13.80002 | 145.35089 | 17544 ft | 365 kts | 251° |
| 2026-04-26 19:55 | 13.79253 | 145.32633 | 17138 ft | 361 kts | 251° |
| 2026-04-26 19:55 | 13.78503 | 145.30177 | 16740 ft | 358 kts | 250° |
| 2026-04-26 19:55 | 13.77758 | 145.27735 | 16348 ft | 355 kts | 250° |
| 2026-04-26 19:55 | 13.77021 | 145.25322 | 15963 ft | 353 kts | 250° |
| 2026-04-26 19:56 | 13.76286 | 145.22918 | 15567 ft | 350 kts | 251° |
| 2026-04-26 19:56 | 13.75559 | 145.20539 | 15199 ft | 347 kts | 250° |
| 2026-04-26 19:56 | 13.74836 | 145.18173 | 14840 ft | 345 kts | 250° |
| 2026-04-26 19:56 | 13.74125 | 145.15847 | 14477 ft | 344 kts | 250° |
| 2026-04-26 19:57 | 13.73406 | 145.13498 | 14083 ft | 344 kts | 250° |
| 2026-04-26 19:57 | 13.72689 | 145.11156 | 13713 ft | 341 kts | 250° |
| 2026-04-26 19:57 | 13.71976 | 145.08831 | 13308 ft | 339 kts | 250° |
| 2026-04-26 19:57 | 13.71270 | 145.06525 | 12919 ft | 336 kts | 250° |
| 2026-04-26 19:58 | 13.70572 | 145.04244 | 12595 ft | 332 kts | 250° |
| 2026-04-26 19:58 | 13.69889 | 145.02017 | 12246 ft | 329 kts | 250° |
| 2026-04-26 19:58 | 13.69202 | 144.99778 | 11903 ft | 326 kts | 250° |
| 2026-04-26 19:58 | 13.68520 | 144.97554 | 11565 ft | 325 kts | 250° |
| 2026-04-26 19:59 | 13.67840 | 144.95337 | 11191 ft | 324 kts | 250° |
| 2026-04-26 19:59 | 13.67163 | 144.93132 | 10847 ft | 322 kts | 250° |
| 2026-04-26 19:59 | 13.66489 | 144.90940 | 10484 ft | 321 kts | 250° |
| 2026-04-26 19:59 | 13.65823 | 144.88770 | 10281 ft | 314 kts | 250° |
| 2026-04-26 20:00 | 13.65191 | 144.86707 | 10121 ft | 300 kts | 250° |
| 2026-04-26 20:00 | 13.64566 | 144.84673 | 9804 ft | 297 kts | 250° |
| 2026-04-26 20:00 | 13.63943 | 144.82649 | 9461 ft | 296 kts | 250° |
| 2026-04-26 20:00 | 13.63323 | 144.80634 | 9121 ft | 295 kts | 250° |
| 2026-04-26 20:01 | 13.62705 | 144.78627 | 8727 ft | 294 kts | 250° |
| 2026-04-26 20:01 | 13.62087 | 144.76619 | 8395 ft | 293 kts | 250° |
| 2026-04-26 20:01 | 13.61480 | 144.74646 | 8077 ft | 292 kts | 250° |
| 2026-04-26 20:01 | 13.60867 | 144.72656 | 7751 ft | 291 kts | 250° |
| 2026-04-26 20:02 | 13.60257 | 144.70674 | 7438 ft | 290 kts | 250° |
| 2026-04-26 20:02 | 13.59649 | 144.68702 | 7115 ft | 289 kts | 250° |
| 2026-04-26 20:02 | 13.59041 | 144.66732 | 6808 ft | 288 kts | 250° |
| 2026-04-26 20:02 | 13.58556 | 144.65488 | 6599 ft | 280 kts | 238° |
| 2026-04-26 20:03 | 13.57040 | 144.63405 | 6229 ft | 272 kts | 223° |
| 2026-04-26 20:03 | 13.55678 | 144.62064 | 5922 ft | 270 kts | 218° |
| 2026-04-26 20:03 | 13.54264 | 144.60884 | 5598 ft | 252 kts | 212° |
| 2026-04-26 20:03 | 13.52807 | 144.59925 | 5341 ft | 247 kts | 205° |
| 2026-04-26 20:04 | 13.51274 | 144.59154 | 5072 ft | 242 kts | 199° |
| 2026-04-26 20:04 | 13.49699 | 144.58576 | 4809 ft | 239 kts | 192° |
| 2026-04-26 20:04 | 13.48128 | 144.58193 | 4595 ft | 232 kts | 187° |
| 2026-04-26 20:04 | 13.46533 | 144.57988 | 4295 ft | 228 kts | 180° |
| 2026-04-26 20:05 | 13.44959 | 144.57959 | 4066 ft | 221 kts | 174° |
| 2026-04-26 20:05 | 13.43469 | 144.58078 | 3964 ft | 209 kts | 169° |
| 2026-04-26 20:05 | 13.42099 | 144.58378 | 3831 ft | 191 kts | 148° |
| 2026-04-26 20:05 | 13.41178 | 144.59287 | 3787 ft | 186 kts | 119° |
| 2026-04-26 20:06 | 13.40646 | 144.60493 | 3697 ft | 183 kts | 104° |
| 2026-04-26 20:06 | 13.40685 | 144.61765 | 3571 ft | 182 kts | 74° |
| 2026-04-26 20:06 | 13.41080 | 144.62991 | 3371 ft | 183 kts | 74° |
| 2026-04-26 20:06 | 13.41496 | 144.64230 | 3117 ft | 182 kts | 70° |
| 2026-04-26 20:07 | 13.41989 | 144.65420 | 2884 ft | 179 kts | 68° |
| 2026-04-26 20:07 | 13.42506 | 144.66576 | 2677 ft | 176 kts | 67° |
| 2026-04-26 20:07 | 13.43015 | 144.67694 | 2437 ft | 173 kts | 67° |
| 2026-04-26 20:07 | 13.43513 | 144.68786 | 2228 ft | 163 kts | 66° |
| 2026-04-26 20:08 | 13.43967 | 144.69782 | 2034 ft | 148 kts | 66° |
| 2026-04-26 20:08 | 13.44380 | 144.70692 | 1845 ft | 132 kts | 67° |
| 2026-04-26 20:08 | 13.44761 | 144.71526 | 1668 ft | 124 kts | 65° |
| 2026-04-26 20:08 | 13.45147 | 144.72375 | 1500 ft | 135 kts | 67° |
| 2026-04-26 20:09 | 13.45541 | 144.73244 | 1349 ft | 135 kts | 65° |
| 2026-04-26 20:09 | 13.45941 | 144.74120 | 1157 ft | 135 kts | 66° |
| 2026-04-26 20:09 | 13.46330 | 144.74973 | 1009 ft | 136 kts | 67° |
| 2026-04-26 20:09 | 13.46733 | 144.75862 | 832 ft | 139 kts | 64° |
| 2026-04-26 20:10 | 13.47140 | 144.76753 | 650 ft | 138 kts | 66° |
| 2026-04-26 20:10 | 13.47549 | 144.77650 | 465 ft | 136 kts | 65° |
| 2026-04-26 20:10 | 13.47947 | 144.78499 | 288 ft | 124 kts | 66° |
| 2026-04-26 20:10 | 13.48280 | 144.79244 | 265 ft | 101 kts | 66° |
| 2026-04-26 20:11 | 13.48512 | 144.79757 | 275 ft | 51 kts | 65° |
| 2026-04-26 20:11 | 13.48630 | 144.80016 | 283 ft | 37 kts | 65° |
| 2026-04-26 20:11 | 13.48719 | 144.80191 | 288 ft | 26 kts | 53° |
| 2026-04-26 20:12 | 13.48881 | 144.80336 | 295 ft | 15 kts | 34° |
| 2026-04-26 20:12 | 13.48964 | 144.80396 | 296 ft | 15 kts | 36° |
| 2026-04-26 20:12 | 13.49030 | 144.80475 | 299 ft | 15 kts | 59° |
| 2026-04-26 20:12 | 13.49080 | 144.80566 | 303 ft | 15 kts | 61° |
| 2026-04-26 20:13 | 13.49123 | 144.80648 | 305 ft | 10 kts | 62° |
| 2026-04-26 20:13 | 13.49146 | 144.80679 | 303 ft | 1 kts | 27° |
| 2026-04-26 20:13 | 13.49166 | 144.80676 | 305 ft | 4 kts | 336° |
| 2026-04-26 20:13 | 13.49184 | 144.80661 | 303 ft | 5 kts | 323° |
| 2026-04-26 20:14 | 13.49233 | 144.80630 | 314 ft | 0 kts | 330° |
| 2026-04-26 20:14 | 13.49118 | 144.80406 | 311 ft | 0 kts | 333° |
| 2026-04-26 20:15 | 13.49119 | 144.80406 | 311 ft | 0 kts | 333° |
| 2026-04-26 20:15 | 13.49346 | 144.80841 | 315 ft | 0 kts | 334° |
| 2026-04-26 20:15 | 13.49033 | 144.80286 | 297 ft | 0 kts | 334° |